createdAt,value
2019-05-17T00:01:07.080Z,14.13
2019-05-17T00:03:36.535Z,12.93
2019-05-17T00:06:11.301Z,13.90
2019-05-17T00:08:39.732Z,13.77
2019-05-17T00:11:13.835Z,12.17
2019-05-17T00:13:43.309Z,12.80
2019-05-17T00:16:14.696Z,16.17
2019-05-17T00:18:46.364Z,14.13
2019-05-17T00:21:17.079Z,14.13
2019-05-17T00:23:46.931Z,13.10
2019-05-17T00:26:18.242Z,14.70
2019-05-17T00:28:56.310Z,14.33
2019-05-17T00:31:34.076Z,14.90
2019-05-17T00:34:07.438Z,14.10
2019-05-17T00:36:38.938Z,13.50
2019-05-17T00:39:09.770Z,15.00
2019-05-17T00:41:40.968Z,13.47
2019-05-17T00:44:09.698Z,13.33
2019-05-17T00:46:44.027Z,11.23
2019-05-17T00:49:12.455Z,12.57
2019-05-17T00:51:42.510Z,13.53
2019-05-17T00:54:10.942Z,13.30
2019-05-17T00:56:42.743Z,13.53
2019-05-17T00:59:14.196Z,12.00
2019-05-17T01:01:42.879Z,11.90
2019-05-17T01:04:14.500Z,12.60
2019-05-17T01:06:43.211Z,12.47
2019-05-17T01:09:11.643Z,13.23
2019-05-17T01:11:50.370Z,14.17
2019-05-17T01:14:10.288Z,11.93
2019-05-17T01:16:38.701Z,13.77
2019-05-17T01:19:07.131Z,12.87
2019-05-17T01:21:41.614Z,12.50
2019-05-17T01:24:19.054Z,13.03
2019-05-17T01:26:49.110Z,12.40
2019-05-17T01:29:19.174Z,12.33
2019-05-17T01:31:47.737Z,10.97
2019-05-17T01:34:18.071Z,13.10
2019-05-17T01:36:49.795Z,11.43
2019-05-17T01:39:21.596Z,12.20
2019-05-17T01:41:50.101Z,10.37
2019-05-17T01:44:21.508Z,10.13
2019-05-17T01:46:49.927Z,10.67
2019-05-17T01:49:18.398Z,10.50
2019-05-17T01:51:51.406Z,10.57
2019-05-17T01:54:50.668Z,12.60
2019-05-17T01:57:21.850Z,11.13
2019-05-17T01:59:52.961Z,10.57
2019-05-17T02:02:31.463Z,14.27
2019-05-17T02:05:01.525Z,13.63
2019-05-17T02:07:34.369Z,13.50
2019-05-17T02:10:03.890Z,12.77
2019-05-17T02:12:32.310Z,14.90
2019-05-17T02:15:00.737Z,14.30
2019-05-17T02:17:29.163Z,13.43
2019-05-17T02:19:57.590Z,15.60
2019-05-17T02:22:27.206Z,14.40
2019-05-17T02:24:57.358Z,13.27
2019-05-17T02:27:32.121Z,13.27
2019-05-17T02:29:57.803Z,13.43
2019-05-17T02:32:33.626Z,14.53
2019-05-17T02:35:04.057Z,14.13
2019-05-17T02:37:33.401Z,14.57
2019-05-17T02:40:07.989Z,14.27
2019-05-17T02:42:33.973Z,14.80
2019-05-17T02:45:05.385Z,14.37
2019-05-17T02:47:39.062Z,14.53
2019-05-17T02:50:12.911Z,14.77
2019-05-17T02:52:52.714Z,14.93
2019-05-17T02:55:23.085Z,15.13
2019-05-17T02:57:54.637Z,13.97
2019-05-17T03:00:23.952Z,12.97
2019-05-17T03:02:53.734Z,12.23
2019-05-17T03:05:25.278Z,12.13
2019-05-17T03:07:56.994Z,12.10
2019-05-17T03:10:28.960Z,11.70
2019-05-17T03:13:04.144Z,11.43
2019-05-17T03:15:33.984Z,10.83
2019-05-17T03:18:03.693Z,12.43
2019-05-17T03:20:33.165Z,11.47
2019-05-17T03:23:04.689Z,10.83
2019-05-17T03:25:43.971Z,12.53
2019-05-17T03:28:23.408Z,15.13
2019-05-17T03:30:56.299Z,13.47
2019-05-17T03:33:26.584Z,14.53
2019-05-17T03:35:56.513Z,15.50
2019-05-17T03:38:32.506Z,16.63
2019-05-17T03:41:16.641Z,18.83
2019-05-17T03:43:35.127Z,18.30
2019-05-17T03:46:03.076Z,18.00
2019-05-17T03:48:34.355Z,17.27
2019-05-17T03:51:05.464Z,18.17
2019-05-17T03:53:35.530Z,16.93
2019-05-17T03:56:06.058Z,20.00
2019-05-17T03:58:46.093Z,17.47
2019-05-17T04:01:23.170Z,17.93
2019-05-17T04:03:53.516Z,14.73
2019-05-17T04:06:24.844Z,15.83
2019-05-17T04:08:58.613Z,15.80
2019-05-17T04:11:31.828Z,15.60
2019-05-17T04:14:03.150Z,15.50
2019-05-17T04:16:37.580Z,15.60
2019-05-17T04:19:06.070Z,16.93
2019-05-17T04:21:37.668Z,14.27
2019-05-17T04:24:07.739Z,14.03
2019-05-17T04:26:37.818Z,17.53
2019-05-17T04:29:13.596Z,18.50
2019-05-17T04:31:43.137Z,16.53
2019-05-17T04:34:13.866Z,17.83
2019-05-17T04:36:43.183Z,19.63
2019-05-17T04:39:13.319Z,16.90
2019-05-17T04:41:49.731Z,18.63
2019-05-17T04:44:16.370Z,21.17
2019-05-17T04:46:44.802Z,21.40
2019-05-17T04:49:13.945Z,21.87
2019-05-17T04:51:43.965Z,21.23
2019-05-17T04:54:14.415Z,21.57
2019-05-17T04:56:48.966Z,21.17
2019-05-17T04:59:24.039Z,22.07
2019-05-17T05:01:54.507Z,19.63
2019-05-17T05:04:25.792Z,22.10
2019-05-17T05:07:02.907Z,21.80
2019-05-17T05:09:32.283Z,21.00
2019-05-17T05:12:05.911Z,21.07
2019-05-17T05:14:35.278Z,23.40
2019-05-17T05:17:17.155Z,19.23
2019-05-17T05:19:54.441Z,19.90
2019-05-17T05:22:27.324Z,19.03
2019-05-17T05:24:55.741Z,18.87
2019-05-17T05:27:26.882Z,20.77
2019-05-17T05:30:00.165Z,16.90
2019-05-17T05:32:31.629Z,18.57
2019-05-17T05:35:06.959Z,18.20
2019-05-17T05:37:42.451Z,18.00
2019-05-17T05:40:21.386Z,20.03
2019-05-17T05:42:52.774Z,19.80
2019-05-17T05:45:24.143Z,19.40
2019-05-17T05:47:52.577Z,19.97
2019-05-17T05:50:24.282Z,20.67
2019-05-17T05:53:01.968Z,20.80
2019-05-17T05:55:26.154Z,19.70
2019-05-17T05:58:02.828Z,21.33
2019-05-17T06:00:33.068Z,19.80
2019-05-17T06:03:05.581Z,19.53
2019-05-17T06:05:36.969Z,19.73
2019-05-17T06:08:05.394Z,19.53
2019-05-17T06:10:33.814Z,22.37
2019-05-17T06:13:05.281Z,20.83
2019-05-17T06:15:33.702Z,20.63
2019-05-17T06:18:03.003Z,19.30
2019-05-17T06:20:49.197Z,18.77
2019-05-17T06:23:23.501Z,22.00
2019-05-17T06:25:52.334Z,19.33
2019-05-17T06:28:23.741Z,19.90
2019-05-17T06:30:52.334Z,18.67
2019-05-17T06:33:30.462Z,18.53
2019-05-17T06:36:02.633Z,19.17
2019-05-17T06:38:30.007Z,19.07
2019-05-17T06:41:03.890Z,17.83
2019-05-17T06:43:33.955Z,17.60
2019-05-17T06:46:12.444Z,15.60
2019-05-17T06:48:45.453Z,14.10
2019-05-17T06:51:13.888Z,16.33
2019-05-17T06:53:43.526Z,16.60
2019-05-17T06:56:15.177Z,14.80
2019-05-17T06:58:45.186Z,13.03
2019-05-17T07:01:24.989Z,13.17
2019-05-17T07:03:56.126Z,13.93
2019-05-17T07:06:26.207Z,16.07
2019-05-17T07:09:04.994Z,14.97
2019-05-17T07:11:44.052Z,14.03
2019-05-17T07:14:12.518Z,14.10
2019-05-17T07:16:42.595Z,13.10
2019-05-17T07:19:16.821Z,13.30
2019-05-17T07:21:46.192Z,13.73
2019-05-17T07:24:14.620Z,13.57
2019-05-17T07:26:43.041Z,14.50
2019-05-17T07:29:20.463Z,13.77
2019-05-17T07:32:00.661Z,12.27
2019-05-17T07:34:33.709Z,10.43
2019-05-17T07:37:04.567Z,11.53
2019-05-17T07:39:56.656Z,10.30
2019-05-17T07:42:23.779Z,9.57
2019-05-17T07:44:56.904Z,11.50
2019-05-17T07:47:29.404Z,10.40
2019-05-17T07:50:01.282Z,9.77
2019-05-17T07:52:39.761Z,11.23
2019-05-17T07:55:10.970Z,10.43
2019-05-17T07:57:41.089Z,12.60
2019-05-17T08:00:15.569Z,9.33
2019-05-17T08:02:46.715Z,9.03
2019-05-17T08:05:21.496Z,10.17
2019-05-17T08:07:50.862Z,9.23
2019-05-17T08:10:24.659Z,9.73
2019-05-17T08:12:50.270Z,9.17
2019-05-17T08:15:20.330Z,8.17
2019-05-17T08:17:50.184Z,8.57
2019-05-17T08:20:24.815Z,7.10
2019-05-17T08:22:53.241Z,7.80
2019-05-17T08:25:24.542Z,7.63
2019-05-17T08:27:54.615Z,7.47
2019-05-17T08:30:30.270Z,7.93
2019-05-17T08:33:03.138Z,6.93
2019-05-17T08:35:31.549Z,7.63
2019-05-17T08:38:05.987Z,8.70
2019-05-17T08:40:40.717Z,9.60
2019-05-17T08:43:11.085Z,8.67
2019-05-17T08:45:40.649Z,7.33
2019-05-17T08:48:10.433Z,8.47
2019-05-17T08:50:40.435Z,9.77
2019-05-17T08:53:10.928Z,9.83
2019-05-17T08:55:42.229Z,9.97
2019-05-17T08:58:13.444Z,9.70
2019-05-17T09:00:44.447Z,11.57
2019-05-17T09:03:13.362Z,10.23
2019-05-17T09:05:44.691Z,9.67
2019-05-17T09:08:16.253Z,9.80
2019-05-17T09:10:46.322Z,9.00
2019-05-17T09:13:19.612Z,9.50
2019-05-17T09:15:56.503Z,9.53
2019-05-17T09:18:30.498Z,9.10
2019-05-17T09:21:04.145Z,9.73
2019-05-17T09:23:32.565Z,8.67
2019-05-17T09:26:03.617Z,9.73
2019-05-17T09:28:34.990Z,9.57
2019-05-17T09:31:03.479Z,8.73
2019-05-17T09:33:34.620Z,10.10
2019-05-17T09:36:04.679Z,8.73
2019-05-17T09:38:37.458Z,9.80
2019-05-17T09:41:09.385Z,8.90
2019-05-17T09:43:40.304Z,9.83
2019-05-17T09:46:19.818Z,10.30
2019-05-17T09:48:50.588Z,10.40
2019-05-17T09:51:19.644Z,10.03
2019-05-17T09:53:50.833Z,11.37
2019-05-17T09:56:20.601Z,10.70
2019-05-17T09:58:55.546Z,10.47
2019-05-17T10:01:23.979Z,10.47
2019-05-17T10:03:55.197Z,10.17
2019-05-17T10:06:25.247Z,9.73
2019-05-17T10:08:55.328Z,10.73
2019-05-17T10:11:30.615Z,10.27
2019-05-17T10:13:54.166Z,10.30
2019-05-17T10:16:25.575Z,9.50
2019-05-17T10:18:54.010Z,10.57
2019-05-17T10:21:22.431Z,11.63
2019-05-17T10:24:00.266Z,9.17
2019-05-17T10:26:31.637Z,8.70
2019-05-17T10:29:10.004Z,8.97
2019-05-17T10:31:41.563Z,8.57
2019-05-17T10:34:12.935Z,8.00
2019-05-17T10:36:44.302Z,8.63
2019-05-17T10:39:12.742Z,8.40
2019-05-17T10:41:42.794Z,7.33
2019-05-17T10:44:14.490Z,8.40
2019-05-17T10:46:45.960Z,7.40
2019-05-17T10:49:14.667Z,6.90
2019-05-17T10:51:49.251Z,6.53
2019-05-17T10:54:20.611Z,8.57
2019-05-17T10:56:56.723Z,7.60
2019-05-17T10:59:20.914Z,6.33
2019-05-17T11:01:53.649Z,6.03
2019-05-17T11:04:22.070Z,5.97
2019-05-17T11:06:50.488Z,6.50
2019-05-17T11:09:22.420Z,5.87
2019-05-17T11:11:50.907Z,5.90
2019-05-17T11:14:22.234Z,8.70
2019-05-17T11:16:54.988Z,6.93
2019-05-17T11:19:26.467Z,8.07
2019-05-17T11:22:02.558Z,7.47
2019-05-17T11:24:33.769Z,7.00
2019-05-17T11:27:03.842Z,7.17
2019-05-17T11:29:34.725Z,7.53
2019-05-17T11:32:02.893Z,7.93
2019-05-17T11:34:41.654Z,6.20
2019-05-17T11:37:25.746Z,6.37
2019-05-17T11:39:42.758Z,7.00
2019-05-17T11:42:14.207Z,7.57
2019-05-17T11:44:42.630Z,8.03
2019-05-17T11:47:11.363Z,7.47
2019-05-17T11:49:42.706Z,7.47
2019-05-17T11:52:12.769Z,8.10
2019-05-17T11:54:44.113Z,7.00
2019-05-17T11:57:15.498Z,7.33
2019-05-17T11:59:50.294Z,7.53
2019-05-17T12:02:21.398Z,7.80
2019-05-17T12:04:51.922Z,6.73
2019-05-17T12:07:23.065Z,7.70
2019-05-17T12:09:51.558Z,8.53
2019-05-17T12:12:28.974Z,8.13
2019-05-17T12:15:06.143Z,8.00
2019-05-17T12:17:32.245Z,7.80
2019-05-17T12:20:05.768Z,6.83
2019-05-17T12:22:37.078Z,7.17
2019-05-17T12:25:13.455Z,7.60
2019-05-17T12:27:41.952Z,7.87
2019-05-17T12:30:12.322Z,6.57
2019-05-17T12:32:40.800Z,7.40
2019-05-17T12:35:14.141Z,7.53
2019-05-17T12:37:42.653Z,6.83
2019-05-17T12:40:19.678Z,7.20
2019-05-17T12:42:48.170Z,6.20
2019-05-17T12:45:19.510Z,7.40
2019-05-17T12:47:49.610Z,7.03
2019-05-17T12:50:19.753Z,6.80
2019-05-17T12:52:48.171Z,7.07
2019-05-17T12:55:21.107Z,7.47
2019-05-17T12:57:49.530Z,6.70
2019-05-17T13:00:22.343Z,6.40
2019-05-17T13:02:50.762Z,7.37
2019-05-17T13:05:23.653Z,7.50
2019-05-17T13:07:53.707Z,7.07
2019-05-17T13:10:22.134Z,5.37
2019-05-17T13:12:52.090Z,5.30
2019-05-17T13:15:20.523Z,5.43
2019-05-17T13:17:54.387Z,4.87
2019-05-17T13:20:24.996Z,5.60
2019-05-17T13:22:59.768Z,5.60
2019-05-17T13:25:31.026Z,5.97
2019-05-17T13:28:01.191Z,4.90
2019-05-17T13:30:34.296Z,5.17
2019-05-17T13:33:02.820Z,4.40
2019-05-17T13:35:36.767Z,4.30
2019-05-17T13:38:07.703Z,4.07
2019-05-17T13:40:39.534Z,4.40
2019-05-17T13:43:06.299Z,3.90
2019-05-17T13:45:34.929Z,3.80
2019-05-17T13:48:05.813Z,4.30
2019-05-17T13:50:34.328Z,4.80
2019-05-17T13:53:23.916Z,4.00
2019-05-17T13:55:55.350Z,3.87
2019-05-17T13:58:35.648Z,3.60
2019-05-17T14:01:04.159Z,3.67
2019-05-17T14:03:37.013Z,3.87
2019-05-17T14:06:09.408Z,2.97
2019-05-17T14:08:40.838Z,3.20
2019-05-17T14:11:12.243Z,3.37
2019-05-17T14:13:46.485Z,3.27
2019-05-17T14:16:14.958Z,3.77
2019-05-17T14:18:45.006Z,3.27
2019-05-17T14:21:19.890Z,3.17
2019-05-17T14:23:51.235Z,3.47
2019-05-17T14:26:19.664Z,3.27
2019-05-17T14:28:54.013Z,4.07
2019-05-17T14:31:28.102Z,3.67
2019-05-17T14:33:56.520Z,3.63
2019-05-17T14:36:29.750Z,3.50
2019-05-17T14:38:59.702Z,2.87
2019-05-17T14:41:30.579Z,3.13
2019-05-17T14:43:59.026Z,2.90
2019-05-17T14:46:29.144Z,3.00
2019-05-17T14:48:59.596Z,3.97
2019-05-17T14:51:33.872Z,2.90
2019-05-17T14:54:03.945Z,3.10
2019-05-17T14:56:35.141Z,2.90
2019-05-17T14:59:05.697Z,3.00
2019-05-17T15:01:46.124Z,3.23
2019-05-17T15:04:29.654Z,3.50
2019-05-17T15:07:01.222Z,3.10
2019-05-17T15:09:34.280Z,2.90
2019-05-17T15:12:02.700Z,3.07
2019-05-17T15:14:32.763Z,3.17
2019-05-17T15:17:05.723Z,3.10
2019-05-17T15:19:34.577Z,2.77
2019-05-17T15:22:07.238Z,3.20
2019-05-17T15:24:38.542Z,3.37
2019-05-17T15:27:08.623Z,5.20
2019-05-17T15:29:42.608Z,3.83
2019-05-17T15:32:11.053Z,3.30
2019-05-17T15:34:41.107Z,3.30
2019-05-17T15:37:09.572Z,4.37
2019-05-17T15:39:39.577Z,3.23
2019-05-17T15:42:11.909Z,3.17
2019-05-17T15:44:45.008Z,2.90
2019-05-17T15:47:19.111Z,3.17
2019-05-17T15:49:47.574Z,3.20
2019-05-17T15:52:20.665Z,3.23
2019-05-17T15:54:54.895Z,4.30
2019-05-17T15:57:30.270Z,3.30
2019-05-17T16:00:10.669Z,3.47
2019-05-17T16:02:45.379Z,3.60
2019-05-17T16:05:21.566Z,3.93
2019-05-17T16:07:49.994Z,3.70
2019-05-17T16:10:22.622Z,5.33
2019-05-17T16:13:01.978Z,4.07
2019-05-17T16:15:23.960Z,3.30
2019-05-17T16:17:58.431Z,3.90
2019-05-17T16:20:26.859Z,3.67
2019-05-17T16:22:55.702Z,3.50
2019-05-17T16:25:25.811Z,3.73
2019-05-17T16:27:54.241Z,4.20
2019-05-17T16:30:25.369Z,3.57
2019-05-17T16:33:05.820Z,3.20
2019-05-17T16:35:35.811Z,3.00
2019-05-17T16:38:06.820Z,3.03
2019-05-17T16:40:39.538Z,3.20
2019-05-17T16:43:18.200Z,2.93
2019-05-17T16:45:43.150Z,3.30
2019-05-17T16:48:14.324Z,3.40
2019-05-17T16:50:45.859Z,3.40
2019-05-17T16:53:16.762Z,3.83
2019-05-17T16:55:48.330Z,3.37
2019-05-17T16:58:26.269Z,3.00
2019-05-17T17:00:57.729Z,3.10
2019-05-17T17:03:43.181Z,3.43
2019-05-17T17:05:57.965Z,3.37
2019-05-17T17:08:33.951Z,4.07
2019-05-17T17:11:05.323Z,3.53
2019-05-17T17:13:36.457Z,3.40
2019-05-17T17:16:09.379Z,3.27
2019-05-17T17:18:51.354Z,3.77
2019-05-17T17:21:25.209Z,3.80
2019-05-17T17:23:57.286Z,3.30
2019-05-17T17:26:25.708Z,3.20
2019-05-17T17:28:56.057Z,3.17
2019-05-17T17:31:30.511Z,3.40
2019-05-17T17:34:02.112Z,3.00
2019-05-17T17:36:30.598Z,3.73
2019-05-17T17:39:00.670Z,4.17
2019-05-17T17:41:39.113Z,3.93
2019-05-17T17:44:09.306Z,3.60
2019-05-17T17:46:42.082Z,3.57
2019-05-17T17:49:24.251Z,4.53
2019-05-17T17:51:49.269Z,3.67
2019-05-17T17:54:17.703Z,4.03
2019-05-17T17:56:47.785Z,4.13
2019-05-17T17:59:25.410Z,3.43
2019-05-17T18:01:59.654Z,3.53
2019-05-17T18:04:28.090Z,3.60
2019-05-17T18:06:58.184Z,4.30
2019-05-17T18:09:26.606Z,4.03
2019-05-17T18:11:58.812Z,3.50
2019-05-17T18:14:27.245Z,3.57
2019-05-17T18:16:55.700Z,3.60
2019-05-17T18:19:26.964Z,3.90
2019-05-17T18:22:01.409Z,3.80
2019-05-17T18:24:32.752Z,3.80
2019-05-17T18:27:01.169Z,4.10
2019-05-17T18:29:29.594Z,3.60
2019-05-17T18:32:04.029Z,3.40
2019-05-17T18:34:35.240Z,4.50
2019-05-17T18:37:03.721Z,5.20
2019-05-17T18:39:33.791Z,4.93
2019-05-17T18:42:03.863Z,4.63
2019-05-17T18:44:35.247Z,4.87
2019-05-17T18:47:03.661Z,3.60
2019-05-17T18:49:36.902Z,4.50
2019-05-17T18:52:14.540Z,4.43
2019-05-17T18:54:45.652Z,5.43
2019-05-17T18:57:19.878Z,4.60
2019-05-17T18:59:50.022Z,4.70
2019-05-17T19:02:20.155Z,4.57
2019-05-17T19:04:57.362Z,5.20
2019-05-17T19:07:25.857Z,7.97
2019-05-17T19:09:54.383Z,13.50
2019-05-17T19:12:33.422Z,8.70
2019-05-17T19:15:03.487Z,6.50
2019-05-17T19:17:40.665Z,7.03
2019-05-17T19:20:23.888Z,6.43
2019-05-17T19:23:00.164Z,6.80
2019-05-17T19:25:45.923Z,6.47
2019-05-17T19:28:17.430Z,5.80
2019-05-17T19:30:48.638Z,7.83
2019-05-17T19:33:22.841Z,6.40
2019-05-17T19:35:53.182Z,5.50
2019-05-17T19:38:22.306Z,5.47
2019-05-17T19:41:02.364Z,4.83
2019-05-17T19:43:33.727Z,5.30
2019-05-17T19:46:02.145Z,5.50
2019-05-17T19:48:31.574Z,8.70
2019-05-17T19:51:02.883Z,5.97
2019-05-17T19:53:32.970Z,5.10
2019-05-17T19:56:05.733Z,4.73
2019-05-17T19:58:47.798Z,5.60
2019-05-17T20:01:18.685Z,4.93
2019-05-17T20:03:47.119Z,7.70
2019-05-17T20:06:24.814Z,6.80
2019-05-17T20:08:59.119Z,6.37
2019-05-17T20:11:34.406Z,14.53
2019-05-17T20:14:00.970Z,9.13
2019-05-17T20:16:35.694Z,8.63
2019-05-17T20:19:04.181Z,6.33
2019-05-17T20:21:34.236Z,8.50
2019-05-17T20:24:05.610Z,11.57
2019-05-17T20:26:34.331Z,9.77
2019-05-17T20:29:10.746Z,8.40
2019-05-17T20:31:40.340Z,7.10
2019-05-17T20:34:11.502Z,7.37
2019-05-17T20:36:39.909Z,6.27
2019-05-17T20:39:11.254Z,6.23
2019-05-17T20:41:42.413Z,6.73
2019-05-17T20:44:10.834Z,6.00
2019-05-17T20:46:49.562Z,6.57
2019-05-17T20:49:15.056Z,5.43
2019-05-17T20:51:46.454Z,8.00
2019-05-17T20:54:16.517Z,8.67
2019-05-17T20:56:44.944Z,7.57
2019-05-17T20:59:19.298Z,7.23
2019-05-17T21:01:51.956Z,8.00
2019-05-17T21:04:20.346Z,7.40
2019-05-17T21:06:49.012Z,5.97
2019-05-17T21:09:17.432Z,6.67
2019-05-17T21:11:47.812Z,7.87
2019-05-17T21:14:19.490Z,7.33
2019-05-17T21:16:47.978Z,5.47
2019-05-17T21:19:16.419Z,6.67
2019-05-17T21:21:50.565Z,6.37
2019-05-17T21:24:22.104Z,6.43
2019-05-17T21:26:53.669Z,6.03
2019-05-17T21:29:23.735Z,5.47
2019-05-17T21:31:56.737Z,5.80
2019-05-17T21:34:29.710Z,5.43
2019-05-17T21:37:04.086Z,6.20
2019-05-17T21:39:42.202Z,6.93
2019-05-17T21:42:10.927Z,6.17
2019-05-17T21:44:40.994Z,5.53
2019-05-17T21:47:11.057Z,6.23
2019-05-17T21:49:41.887Z,6.73
2019-05-17T21:52:16.089Z,7.93
2019-05-17T21:54:44.530Z,12.07
2019-05-17T21:57:18.613Z,9.33
2019-05-17T21:59:48.679Z,8.33
2019-05-17T22:02:20.209Z,17.40
2019-05-17T22:04:50.277Z,8.77
2019-05-17T22:07:18.691Z,7.33
2019-05-17T22:09:50.517Z,7.47
2019-05-17T22:12:30.913Z,7.20
2019-05-17T22:15:03.889Z,6.37
2019-05-17T22:17:32.310Z,7.17
2019-05-17T22:20:08.365Z,6.27
2019-05-17T22:22:36.790Z,6.77
2019-05-17T22:25:06.291Z,7.50
2019-05-17T22:27:37.142Z,7.37
2019-05-17T22:30:10.570Z,5.73
2019-05-17T22:32:38.987Z,6.10
2019-05-17T22:35:11.791Z,6.50
2019-05-17T22:37:43.282Z,7.47
2019-05-17T22:40:13.402Z,7.17
2019-05-17T22:42:44.518Z,6.87
2019-05-17T22:45:14.946Z,7.07
2019-05-17T22:47:46.053Z,6.87
2019-05-17T22:50:14.826Z,6.17
2019-05-17T22:52:43.237Z,5.80
2019-05-17T22:55:16.347Z,6.17
2019-05-17T22:57:58.359Z,5.90
2019-05-17T23:00:29.459Z,6.13
2019-05-17T23:03:10.390Z,5.23
2019-05-17T23:05:44.490Z,4.87
2019-05-17T23:08:12.918Z,4.77
2019-05-17T23:10:50.408Z,4.43
2019-05-17T23:13:24.706Z,5.10
2019-05-17T23:16:07.085Z,4.67
2019-05-17T23:18:42.947Z,4.73
2019-05-17T23:21:17.218Z,4.33
2019-05-17T23:23:48.261Z,4.83
2019-05-17T23:26:17.224Z,5.23
2019-05-17T23:28:51.138Z,4.90
2019-05-17T23:31:19.553Z,5.23
2019-05-17T23:33:47.976Z,5.07
2019-05-17T23:36:20.033Z,4.50
2019-05-17T23:38:51.115Z,4.50
2019-05-17T23:41:23.429Z,4.53
2019-05-17T23:43:56.567Z,5.77
2019-05-17T23:46:30.827Z,4.73
2019-05-17T23:48:59.238Z,4.70
2019-05-17T23:51:30.638Z,4.87
2019-05-17T23:54:01.904Z,5.30
2019-05-17T23:56:42.244Z,5.07
2019-05-17T23:59:13.582Z,5.00
